Zefira — 9HA2459 — position and weather

sailwx.info

Track history (hours):
 
Tides and Currents Weather Stations Pressure Air Temp Water Temp Dewpoint Dewpoint Depression Visibility Wind Speed Wind Dir Waves Ship Positions

Zefira

Last reported at 2016-Aug-10 23:16 UTC. Time now 2016-Aug-27 22:17 UTC.
Position N 36°59' E 025°19'.
Warning: this ship's position is 16 days out of date.

Length 50 m; draft 4.9 m.

Type: Pleasure craft. MMSI: 248663000.

Date/timePositionNaut miles runAvg speedWind from/ knotsBaromVisibWave heightAir tempDewpointWater temp
2016-Aug-10 23:16N 36°59' E 025°19'7 9.5
2016-Aug-10 22:34N 37°06' E 025°19'10 9.6
2016-Aug-10 21:34N 37°16' E 025°19'9 8.8
2016-Aug-10 20:34N 37°24' E 025°19'0 0.1
2016-Aug-10 19:34N 37°25' E 025°19'0 0.0
2016-Aug-10 18:33N 37°25' E 025°19'0 0.3
2016-Aug-10 17:34N 37°25' E 025°19'0 0.1
2016-Aug-10 16:34N 37°25' E 025°19'0 0.0
2016-Aug-10 15:33N 37°25' E 025°19'0 0.0
2016-Aug-10 14:34N 37°25' E 025°19'0 0.0
2016-Aug-10 13:33N 37°25' E 025°19'0 0.0
2016-Aug-10 12:34N 37°25' E 025°19'0 0.0
2016-Aug-10 11:34N 37°25' E 025°19'0 0.0
2016-Aug-10 10:34N 37°25' E 025°19'0 0.0
2016-Aug-10 09:34N 37°25' E 025°19'0 0.0
2016-Aug-10 08:34N 37°25' E 025°19'0 0.0
2016-Aug-10 07:34N 37°25' E 025°19'0 0.0
2016-Aug-10 06:34N 37°25' E 025°19'0 0.0
2016-Aug-10 05:33N 37°25' E 025°19'0 0.0
2016-Aug-10 04:34N 37°25' E 025°19'0 0.0
2016-Aug-10 03:33N 37°25' E 025°19'0 0.0
2016-Aug-10 02:34N 37°25' E 025°19'0 0.0
2016-Aug-10 01:34N 37°25' E 025°19'0 0.0
2016-Aug-10 00:34N 37°25' E 025°19'0 0.0
2016-Aug-09 23:34N 37°25' E 025°19'0 0.0
2016-Aug-09 22:34N 37°25' E 025°19'0 0.0
2016-Aug-09 21:34N 37°25' E 025°19'0 0.0
2016-Aug-09 20:34N 37°25' E 025°19'0 0.0
2016-Aug-09 19:33N 37°25' E 025°19'0 0.0
2016-Aug-09 18:33N 37°25' E 025°19'0 0.0
2016-Aug-09 17:34N 37°25' E 025°19'0 0.0
2016-Aug-09 16:33N 37°25' E 025°19'0 0.0
2016-Aug-09 15:34N 37°25' E 025°19'0 0.0
2016-Aug-09 14:34N 37°25' E 025°19'0 0.3
2016-Aug-09 13:33N 37°25' E 025°19'0 0.0
2016-Aug-09 12:33N 37°25' E 025°19'0 0.0
2016-Aug-09 11:34N 37°25' E 025°19'0 0.1
2016-Aug-09 10:34N 37°25' E 025°19'4 4.2
2016-Aug-09 09:33N 37°26' E 025°25'4 4.3
2016-Aug-09 08:34N 37°24' E 025°19'0 0.2
2016-Aug-09 07:34N 37°25' E 025°19'0 0.0
2016-Aug-09 05:34N 37°25' E 025°19'0 0.0
2016-Aug-09 04:34N 37°25' E 025°19'0 0.0
2016-Aug-09 03:34N 37°25' E 025°19'0 0.0
2016-Aug-09 02:34N 37°25' E 025°19'0 0.0
2016-Aug-09 01:33N 37°25' E 025°19'0 0.0
2016-Aug-09 00:34N 37°25' E 025°19'0 0.0
2016-Aug-08 23:33N 37°25' E 025°19'0 0.0
2016-Aug-08 22:33N 37°25' E 025°19'0 0.0
2016-Aug-08 21:34N 37°25' E 025°19'0 0.0
2016-Aug-08 20:34N 37°25' E 025°19'0 0.0
2016-Aug-08 19:34N 37°25' E 025°19'0 0.0
2016-Aug-08 18:34N 37°25' E 025°19'0 0.0
2016-Aug-08 17:34N 37°25' E 025°19'0 0.0
2016-Aug-08 16:34N 37°25' E 025°19'0 0.0
2016-Aug-08 15:34N 37°25' E 025°19'0 0.0
2016-Aug-08 14:34N 37°25' E 025°19'0 0.0
2016-Aug-08 13:34N 37°25' E 025°19'0 0.0
2016-Aug-08 12:34N 37°25' E 025°19'0 0.0
2016-Aug-08 11:33N 37°25' E 025°19'0 0.0
2016-Aug-08 10:34N 37°25' E 025°19'0 0.0
2016-Aug-08 09:34N 37°25' E 025°19'0 0.0
2016-Aug-08 08:34N 37°25' E 025°19'0 0.0
2016-Aug-08 07:33N 37°25' E 025°19'0 0.0
2016-Aug-08 06:34N 37°25' E 025°19'0 0.0
2016-Aug-08 05:34N 37°25' E 025°19'0 0.0
2016-Aug-08 04:33N 37°25' E 025°19'0 0.0
2016-Aug-08 03:34N 37°25' E 025°19'5 4.6
2016-Aug-08 02:34N 37°20' E 025°17'7 7.3
2016-Aug-08 01:34N 37°17' E 025°09'7 6.8
2016-Aug-08 00:33N 37°15' E 025°01'7 7.3
2016-Aug-07 23:33N 37°11' E 024°53'  
Track history (hours):
 
Tides and Currents Weather Stations Pressure Air Temp Water Temp Dewpoint Dewpoint Depression Visibility Wind Speed Wind Dir Waves Ship Positions

Zefira

Last reported at 2016-Aug-10 23:16 UTC. Time now 2016-Aug-27 22:17 UTC.
Position N 36°59' E 025°19'.
Warning: this ship's position is 16 days out of date.

Length 50 m; draft 4.9 m.

Type: Pleasure craft. MMSI: 248663000.

Date/timePositionNaut miles runAvg speedWind from/ knotsBaromVisibWave heightAir tempDewpointWater temp
2016-Aug-10 23:16N 36°59' E 025°19'7 9.5
2016-Aug-10 22:34N 37°06' E 025°19'10 9.6
2016-Aug-10 21:34N 37°16' E 025°19'9 8.8
2016-Aug-10 20:34N 37°24' E 025°19'0 0.1
2016-Aug-10 19:34N 37°25' E 025°19'0 0.0
2016-Aug-10 18:33N 37°25' E 025°19'0 0.3
2016-Aug-10 17:34N 37°25' E 025°19'0 0.1
2016-Aug-10 16:34N 37°25' E 025°19'0 0.0
2016-Aug-10 15:33N 37°25' E 025°19'0 0.0
2016-Aug-10 14:34N 37°25' E 025°19'0 0.0
2016-Aug-10 13:33N 37°25' E 025°19'0 0.0
2016-Aug-10 12:34N 37°25' E 025°19'0 0.0
2016-Aug-10 11:34N 37°25' E 025°19'0 0.0
2016-Aug-10 10:34N 37°25' E 025°19'0 0.0
2016-Aug-10 09:34N 37°25' E 025°19'0 0.0
2016-Aug-10 08:34N 37°25' E 025°19'0 0.0
2016-Aug-10 07:34N 37°25' E 025°19'0 0.0
2016-Aug-10 06:34N 37°25' E 025°19'0 0.0
2016-Aug-10 05:33N 37°25' E 025°19'0 0.0
2016-Aug-10 04:34N 37°25' E 025°19'0 0.0
2016-Aug-10 03:33N 37°25' E 025°19'0 0.0
2016-Aug-10 02:34N 37°25' E 025°19'0 0.0
2016-Aug-10 01:34N 37°25' E 025°19'0 0.0
2016-Aug-10 00:34N 37°25' E 025°19'0 0.0
2016-Aug-09 23:34N 37°25' E 025°19'0 0.0
2016-Aug-09 22:34N 37°25' E 025°19'0 0.0
2016-Aug-09 21:34N 37°25' E 025°19'0 0.0
2016-Aug-09 20:34N 37°25' E 025°19'0 0.0
2016-Aug-09 19:33N 37°25' E 025°19'0 0.0
2016-Aug-09 18:33N 37°25' E 025°19'0 0.0
2016-Aug-09 17:34N 37°25' E 025°19'0 0.0
2016-Aug-09 16:33N 37°25' E 025°19'0 0.0
2016-Aug-09 15:34N 37°25' E 025°19'0 0.0
2016-Aug-09 14:34N 37°25' E 025°19'0 0.3
2016-Aug-09 13:33N 37°25' E 025°19'0 0.0
2016-Aug-09 12:33N 37°25' E 025°19'0 0.0
2016-Aug-09 11:34N 37°25' E 025°19'0 0.1
2016-Aug-09 10:34N 37°25' E 025°19'4 4.2
2016-Aug-09 09:33N 37°26' E 025°25'4 4.3
2016-Aug-09 08:34N 37°24' E 025°19'0 0.2
2016-Aug-09 07:34N 37°25' E 025°19'0 0.0
2016-Aug-09 05:34N 37°25' E 025°19'0 0.0
2016-Aug-09 04:34N 37°25' E 025°19'0 0.0
2016-Aug-09 03:34N 37°25' E 025°19'0 0.0
2016-Aug-09 02:34N 37°25' E 025°19'0 0.0
2016-Aug-09 01:33N 37°25' E 025°19'0 0.0
2016-Aug-09 00:34N 37°25' E 025°19'0 0.0
2016-Aug-08 23:33N 37°25' E 025°19'0 0.0
2016-Aug-08 22:33N 37°25' E 025°19'0 0.0
2016-Aug-08 21:34N 37°25' E 025°19'0 0.0
2016-Aug-08 20:34N 37°25' E 025°19'0 0.0
2016-Aug-08 19:34N 37°25' E 025°19'0 0.0
2016-Aug-08 18:34N 37°25' E 025°19'0 0.0
2016-Aug-08 17:34N 37°25' E 025°19'0 0.0
2016-Aug-08 16:34N 37°25' E 025°19'0 0.0
2016-Aug-08 15:34N 37°25' E 025°19'0 0.0
2016-Aug-08 14:34N 37°25' E 025°19'0 0.0
2016-Aug-08 13:34N 37°25' E 025°19'0 0.0
2016-Aug-08 12:34N 37°25' E 025°19'0 0.0
2016-Aug-08 11:33N 37°25' E 025°19'0 0.0
2016-Aug-08 10:34N 37°25' E 025°19'0 0.0
2016-Aug-08 09:34N 37°25' E 025°19'0 0.0
2016-Aug-08 08:34N 37°25' E 025°19'0 0.0
2016-Aug-08 07:33N 37°25' E 025°19'0 0.0
2016-Aug-08 06:34N 37°25' E 025°19'0 0.0
2016-Aug-08 05:34N 37°25' E 025°19'0 0.0
2016-Aug-08 04:33N 37°25' E 025°19'0 0.0
2016-Aug-08 03:34N 37°25' E 025°19'5 4.6
2016-Aug-08 02:34N 37°20' E 025°17'7 7.3
2016-Aug-08 01:34N 37°17' E 025°09'7 6.8
2016-Aug-08 00:33N 37°15' E 025°01'7 7.3
2016-Aug-07 23:33N 37°11' E 024°53'  

Dump ship's entire track history